Time;durP1;ratioP1;P1;durP2;ratioP2;P2;SDS_P1;SDS_P2;PMS_P1;PMS_P2;Temp;Humidity;BMP_temperature;BMP_pressure;BME280_temperature;BME280_humidity;BME280_pressure;Samples;Min_cycle;Max_cycle;Signal;HPM_P1;HPM_P2
2023/06/28 11:32:27;;;;;;;12.35;7.65;;;;;;;;;;6113799;23;20345;-87
2023/06/28 11:34:54;;;;;;;7.25;6.55;;;;;;;;;;6126812;23;20081;-84
2023/06/28 11:37:22;;;;;;;13.55;7.38;;;;;;;;;;6126381;23;20036;-85
2023/06/28 11:39:51;;;;;;;6.35;5.75;;;;;;;;;;6100588;23;20008;-84
2023/06/28 11:42:18;;;;;;;8.32;6.22;;;;;;;;;;6126831;23;20429;-84
2023/06/28 11:44:53;;;;;;;9.43;6.38;;;;;;;;;;6126700;23;20078;-84
2023/06/28 12:00:16;;;;;;;10.55;5.85;;;;;;;;;;6117564;23;20022;-85
2023/06/28 12:02:47;;;;;;;14.13;5.65;;;;;;;;;;6096694;23;20010;-85
2023/06/28 12:05:17;;;;;;;9.15;5.40;;;;;;;;;;6099404;23;20006;-84
2023/06/28 12:07:44;;;;;;;;;;;;;;;;;;6069254;23;20431;-85
2023/06/28 12:10:11;;;;;;;6.85;4.70;;;;;;;;;;6070348;23;19916;-85
2023/06/28 12:12:38;;;;;;;7.05;5.47;;;;;;;;;;6070475;23;20326;-86
2023/06/28 12:15:05;;;;;;;6.05;5.45;;;;;;;;;;6044852;23;20079;-84
2023/06/28 12:17:40;;;;;;;7.40;5.30;;;;;;;;;;6070058;23;20316;-86
2023/06/28 12:20:07;;;;;;;7.43;5.60;;;;;;;;;;6070277;23;20003;-86
2023/06/28 12:22:46;;;;;;;11.50;5.60;;;;;;;;;;6044888;23;20003;-84
2023/06/28 12:25:12;;;;;;;8.70;4.80;;;;;;;;;;6070401;23;20002;-84
2023/06/28 12:27:41;;;;;;;6.68;5.18;;;;;;;;;;6070108;23;20264;-84
2023/06/28 12:30:11;;;;;;;7.47;5.35;;;;;;;;;;6070406;23;20002;-84
2023/06/28 12:32:44;;;;;;;8.20;5.57;;;;;;;;;;6070068;23;19999;-84
2023/06/28 12:35:24;;;;;;;8.70;5.20;;;;;;;;;;6070260;23;20003;-85
2023/06/28 12:37:54;;;;;;;10.05;5.35;;;;;;;;;;6070068;23;20030;-84
2023/06/28 12:40:19;;;;;;;6.35;4.82;;;;;;;;;;6044768;23;20010;-83
2023/06/28 12:42:45;;;;;;;8.00;5.00;;;;;;;;;;6070292;23;20395;-82
2023/06/28 12:45:12;;;;;;;6.55;5.18;;;;;;;;;;6068598;23;20010;-85
2023/06/28 12:47:38;;;;;;;7.00;5.00;;;;;;;;;;6068402;23;20431;-85
2023/06/28 12:50:04;;;;;;;8.43;5.07;;;;;;;;;;6070010;23;20007;-83
2023/06/28 12:52:29;;;;;;;7.63;5.00;;;;;;;;;;6068743;23;20415;-89
2023/06/28 12:54:56;;;;;;;6.60;4.82;;;;;;;;;;6070663;23;20131;-86
2023/06/28 12:57:23;;;;;;;9.30;4.97;;;;;;;;;;6069170;23;20016;-84
2023/06/28 12:59:50;;;;;;;6.65;4.93;;;;;;;;;;6070217;23;20006;-85
2023/06/28 13:02:16;;;;;;;8.45;5.18;;;;;;;;;;6095015;23;20021;-93
2023/06/28 13:04:42;;;;;;;7.32;4.97;;;;;;;;;;6100374;23;20334;-93
2023/06/28 13:07:08;;;;;;;6.80;5.25;;;;;;;;;;6100122;23;20010;-93
2023/06/28 13:09:34;;;;;;;5.32;4.60;;;;;;;;;;6100317;23;20002;-92
2023/06/28 13:12:00;;;;;;;9.80;4.50;;;;;;;;;;6099938;23;20033;-92
2023/06/28 13:14:26;;;;;;;5.68;4.50;;;;;;;;;;6100103;23;20014;-94
2023/06/28 13:16:52;;;;;;;6.43;4.40;;;;;;;;;;6100277;23;20007;-93
2023/06/28 13:19:17;;;;;;;6.28;4.68;;;;;;;;;;6075851;23;20321;-94
2023/06/28 13:21:51;;;;;;;6.55;4.70;;;;;;;;;;6099431;23;20010;-85
2023/06/28 13:24:16;;;;;;;6.10;5.13;;;;;;;;;;6100566;23;20007;-89
2023/06/28 13:26:42;;;;;;;5.68;4.82;;;;;;;;;;6101834;23;20423;-93
2023/06/28 13:29:07;;;;;;;6.93;4.47;;;;;;;;;;6106175;23;20090;-93
2023/06/28 13:31:33;;;;;;;5.93;4.97;;;;;;;;;;6109711;23;20078;-91
2023/06/28 13:33:59;;;;;;;6.88;4.60;;;;;;;;;;6108510;23;20069;-94
2023/06/28 13:36:24;;;;;;;9.02;4.80;;;;;;;;;;6107155;23;20003;-93
2023/06/28 13:38:50;;;;;;;10.30;5.32;;;;;;;;;;6105009;23;20017;-94
2023/06/28 13:41:15;;;;;;;11.35;5.05;;;;;;;;;;6105737;23;20018;-93
2023/06/28 13:43:41;;;;;;;6.13;4.55;;;;;;;;;;6103572;23;20033;-94
2023/06/28 13:46:06;;;;;;;12.00;5.63;;;;;;;;;;6101034;23;20013;-94
2023/06/28 13:48:32;;;;;;;5.75;4.47;;;;;;;;;;6099718;23;20337;-91
2023/06/28 13:50:57;;;;;;;9.50;4.90;;;;;;;;;;6099321;23;20046;-85
2023/06/28 13:53:24;;;;;;;8.25;4.97;;;;;;;;;;6098566;23;19999;-84
2023/06/28 13:55:49;;;;;;;5.70;4.70;;;;;;;;;;6072859;23;19998;-87
2023/06/28 13:58:15;;;;;;;5.05;4.55;;;;;;;;;;6098198;23;20005;-82
2023/06/28 14:00:40;;;;;;;6.63;4.50;;;;;;;;;;6098236;23;20019;-82
2023/06/28 14:03:06;;;;;;;5.97;4.22;;;;;;;;;;6098335;23;20002;-81
2023/06/28 14:05:32;;;;;;;8.55;4.82;;;;;;;;;;6098380;23;20002;-82
2023/06/28 14:07:57;;;;;;;6.07;4.80;;;;;;;;;;6097907;23;20377;-81
2023/06/28 14:10:23;;;;;;;6.93;4.70;;;;;;;;;;6098691;23;20050;-90
2023/06/28 14:12:48;;;;;;;8.45;4.90;;;;;;;;;;6098823;23;20081;-91
2023/06/28 14:15:14;;;;;;;10.73;5.43;;;;;;;;;;6074584;23;20017;-91
2023/06/28 14:17:39;;;;;;;7.60;4.70;;;;;;;;;;6098043;23;20006;-82
2023/06/28 14:20:05;;;;;;;7.22;4.07;;;;;;;;;;6098614;23;20081;-82
2023/06/28 14:22:32;;;;;;;5.32;4.53;;;;;;;;;;6072851;23;20438;-82
2023/06/28 14:24:57;;;;;;;8.65;4.55;;;;;;;;;;6097958;23;20033;-82
2023/06/28 14:27:23;;;;;;;5.47;4.32;;;;;;;;;;6097681;23;20010;-83
2023/06/28 14:29:49;;;;;;;7.50;4.60;;;;;;;;;;6097954;23;20378;-83
2023/06/28 14:32:14;;;;;;;12.00;5.22;;;;;;;;;;6096450;23;20033;-83
2023/06/28 14:34:39;;;;;;;8.40;5.05;;;;;;;;;;6097798;23;20330;-83
2023/06/28 14:37:05;;;;;;;9.32;5.15;;;;;;;;;;6098253;23;20017;-84
2023/06/28 14:39:31;;;;;;;7.07;4.30;;;;;;;;;;6098335;23;20425;-82
2023/06/28 14:41:56;;;;;;;6.90;4.75;;;;;;;;;;6097983;23;20007;-81
2023/06/28 14:44:21;;;;;;;6.55;4.00;;;;;;;;;;6097769;23;20009;-82
2023/06/28 14:46:47;;;;;;;4.75;4.35;;;;;;;;;;6097805;23;20010;-80
2023/06/28 14:49:12;;;;;;;6.70;4.30;;;;;;;;;;6097862;23;20006;-82
2023/06/28 14:51:38;;;;;;;5.07;4.00;;;;;;;;;;6097459;23;20003;-82
2023/06/28 14:54:03;;;;;;;5.03;4.20;;;;;;;;;;6097961;23;20048;-83
2023/06/28 14:56:29;;;;;;;7.13;4.47;;;;;;;;;;6097945;23;20009;-83
2023/06/28 14:58:54;;;;;;;5.30;4.32;;;;;;;;;;6097414;23;20461;-83
2023/06/28 15:01:20;;;;;;;4.97;4.40;;;;;;;;;;6097205;23;20022;-82
2023/06/28 15:03:45;;;;;;;4.70;4.22;;;;;;;;;;6097833;23;20081;-84
2023/06/28 15:06:11;;;;;;;5.07;4.15;;;;;;;;;;6097758;23;20006;-83
2023/06/28 15:08:36;;;;;;;5.47;4.30;;;;;;;;;;6097526;23;20391;-83
2023/06/28 15:11:02;;;;;;;4.78;4.38;;;;;;;;;;6097450;23;20010;-83
2023/06/28 15:13:27;;;;;;;4.80;4.28;;;;;;;;;;6097555;23;20295;-83
2023/06/28 15:15:53;;;;;;;4.93;4.22;;;;;;;;;;6097538;23;20363;-84
2023/06/28 15:18:18;;;;;;;5.47;4.50;;;;;;;;;;6097909;23;20078;-83
2023/06/28 15:20:44;;;;;;;6.05;4.45;;;;;;;;;;6097708;23;20415;-83
2023/06/28 15:23:11;;;;;;;5.85;4.50;;;;;;;;;;6097864;23;20010;-84
2023/06/28 15:25:36;;;;;;;5.55;4.05;;;;;;;;;;6097466;23;20010;-84
2023/06/28 15:28:02;;;;;;;5.90;4.35;;;;;;;;;;6097214;23;20078;-84
2023/06/28 15:30:27;;;;;;;5.72;4.43;;;;;;;;;;6097491;23;20045;-83
2023/06/28 15:32:53;;;;;;;6.68;4.50;;;;;;;;;;6096002;23;20385;-82
2023/06/28 15:35:19;;;;;;;5.72;4.47;;;;;;;;;;6097712;23;20433;-84
2023/06/28 15:37:45;;;;;;;4.78;4.32;;;;;;;;;;6097139;23;20057;-84
2023/06/28 15:40:11;;;;;;;4.93;4.43;;;;;;;;;;6097503;23;20362;-83
2023/06/28 15:42:36;;;;;;;4.75;4.28;;;;;;;;;;6095975;23;20006;-83
2023/06/28 15:45:02;;;;;;;5.07;4.57;;;;;;;;;;6097481;23;20007;-84
2023/06/28 15:47:27;;;;;;;5.75;4.35;;;;;;;;;;6096679;23;20010;-84
2023/06/28 15:49:53;;;;;;;4.68;4.22;;;;;;;;;;6097673;23;20061;-83
2023/06/28 15:52:18;;;;;;;5.72;4.50;;;;;;;;;;6097536;23;20002;-85
2023/06/28 15:54:44;;;;;;;7.20;4.22;;;;;;;;;;6097429;23;20006;-85
2023/06/28 15:57:12;;;;;;;5.40;4.15;;;;;;;;;;6097431;23;20006;-84
2023/06/28 15:59:38;;;;;;;6.10;4.20;;;;;;;;;;6097309;23;20037;-84
2023/06/28 16:02:06;;;;;;;4.80;4.25;;;;;;;;;;6097339;23;20720;-84
2023/06/28 16:04:32;;;;;;;5.50;4.20;;;;;;;;;;6097147;23;20010;-84
2023/06/28 16:06:57;;;;;;;5.60;4.20;;;;;;;;;;6097248;23;20007;-83
2023/06/28 16:09:23;;;;;;;5.72;4.05;;;;;;;;;;6097556;23;20322;-83
2023/06/28 16:11:48;;;;;;;6.03;5.00;;;;;;;;;;6097644;23;20002;-84
2023/06/28 16:14:14;;;;;;;4.72;3.95;;;;;;;;;;6097348;23;20432;-84
2023/06/28 16:16:43;;;;;;;5.75;4.20;;;;;;;;;;6097368;23;20014;-84
2023/06/28 16:19:09;;;;;;;6.13;4.07;;;;;;;;;;6097734;23;20019;-84
2023/06/28 16:21:34;;;;;;;4.85;4.28;;;;;;;;;;6097449;23;20006;-84
2023/06/28 16:23:59;;;;;;;4.57;4.10;;;;;;;;;;6097198;23;20541;-84
2023/06/28 16:26:25;;;;;;;5.57;4.60;;;;;;;;;;6097398;23;20007;-85
2023/06/28 16:28:51;;;;;;;5.82;4.20;;;;;;;;;;6095759;23;20006;-84
2023/06/28 16:31:16;;;;;;;4.70;4.30;;;;;;;;;;6097133;23;20451;-84
2023/06/28 16:33:41;;;;;;;6.35;3.70;;;;;;;;;;6097265;23;20010;-84
2023/06/28 16:36:07;;;;;;;4.20;3.85;;;;;;;;;;6097336;23;20098;-84
2023/06/28 16:38:32;;;;;;;4.88;4.40;;;;;;;;;;6097079;23;20418;-85
2023/06/28 16:40:58;;;;;;;4.93;4.05;;;;;;;;;;6096787;23;20010;-84
2023/06/28 16:43:23;;;;;;;5.75;4.55;;;;;;;;;;6071769;23;20440;-84
2023/06/28 16:45:49;;;;;;;4.43;3.90;;;;;;;;;;6097047;23;20386;-83
2023/06/28 16:48:14;;;;;;;4.50;4.05;;;;;;;;;;6096893;23;20423;-83
2023/06/28 16:50:40;;;;;;;4.63;3.92;;;;;;;;;;6098121;23;20076;-92
2023/06/28 16:53:05;;;;;;;5.45;4.38;;;;;;;;;;6098982;23;19998;-87
2023/06/28 16:55:30;;;;;;;5.57;4.82;;;;;;;;;;6099420;23;20050;-80
2023/06/28 16:57:57;;;;;;;4.80;3.97;;;;;;;;;;6098712;23;20019;-85
2023/06/28 17:00:23;;;;;;;4.95;4.45;;;;;;;;;;6098752;23;20097;-83
2023/06/28 17:02:48;;;;;;;4.40;4.00;;;;;;;;;;6098554;23;20066;-85
2023/06/28 17:05:14;;;;;;;5.10;4.65;;;;;;;;;;6098892;23;20078;-83
2023/06/28 17:07:40;;;;;;;5.47;3.97;;;;;;;;;;6098403;23;20010;-82
2023/06/28 17:10:07;;;;;;;4.80;4.30;;;;;;;;;;6098578;23;20360;-81
2023/06/28 17:12:32;;;;;;;5.13;4.20;;;;;;;;;;6098770;23;20411;-81
2023/06/28 17:14:57;;;;;;;5.20;4.60;;;;;;;;;;6098530;23;20038;-81
2023/06/28 17:17:23;;;;;;;6.70;4.43;;;;;;;;;;6098648;23;20371;-82
2023/06/28 17:19:48;;;;;;;6.10;4.30;;;;;;;;;;6098720;23;20414;-83
2023/06/28 17:22:14;;;;;;;4.45;4.05;;;;;;;;;;6098774;23;20335;-83
2023/06/28 17:24:39;;;;;;;4.72;4.00;;;;;;;;;;6098832;23;19998;-82
2023/06/28 17:27:05;;;;;;;5.25;4.75;;;;;;;;;;6098281;23;20006;-83
2023/06/28 17:29:31;;;;;;;7.13;5.63;;;;;;;;;;6098532;23;20374;-81
2023/06/28 17:31:56;;;;;;;8.25;5.45;;;;;;;;;;6098659;23;20002;-86
2023/06/28 17:34:22;;;;;;;4.72;4.15;;;;;;;;;;6099095;23;20056;-83
2023/06/28 17:36:47;;;;;;;4.85;4.32;;;;;;;;;;6098949;23;20353;-90
2023/06/28 17:39:17;;;;;;;5.07;4.10;;;;;;;;;;6098836;23;20006;-81
2023/06/28 17:41:43;;;;;;;4.68;4.18;;;;;;;;;;6098521;23;20034;-83
2023/06/28 17:44:08;;;;;;;4.60;4.20;;;;;;;;;;6098440;23;20002;-83
2023/06/28 17:46:35;;;;;;;4.78;3.70;;;;;;;;;;6099040;23;20034;-82
2023/06/28 17:49:00;;;;;;;5.10;4.28;;;;;;;;;;6098400;23;20003;-83
2023/06/28 17:51:26;;;;;;;4.57;3.90;;;;;;;;;;6098185;23;20013;-82
2023/06/28 17:53:51;;;;;;;4.47;4.07;;;;;;;;;;6098087;23;20089;-82
2023/06/28 17:56:17;;;;;;;4.97;4.43;;;;;;;;;;6098137;23;20322;-81
2023/06/28 17:58:43;;;;;;;4.47;4.07;;;;;;;;;;6098326;23;20010;-80
2023/06/28 18:01:09;;;;;;;4.43;4.00;;;;;;;;;;6096327;23;20022;-81
2023/06/28 18:03:34;;;;;;;4.13;3.72;;;;;;;;;;6097995;23;20010;-82
2023/06/28 18:06:00;;;;;;;4.45;3.83;;;;;;;;;;6098390;23;20003;-82
2023/06/28 18:08:27;;;;;;;4.82;4.43;;;;;;;;;;6098189;23;20485;-81
2023/06/28 18:10:53;;;;;;;6.15;4.40;;;;;;;;;;6072572;23;20010;-79
2023/06/28 18:13:18;;;;;;;5.10;4.20;;;;;;;;;;6098317;23;20576;-79
2023/06/28 18:15:44;;;;;;;5.25;4.18;;;;;;;;;;6098367;23;20010;-80
2023/06/28 18:18:09;;;;;;;4.28;3.88;;;;;;;;;;6097754;23;20074;-80
2023/06/28 18:20:35;;;;;;;5.63;4.38;;;;;;;;;;6096530;23;20485;-80
2023/06/28 18:23:01;;;;;;;5.75;4.43;;;;;;;;;;6097952;23;20393;-80
2023/06/28 18:25:26;;;;;;;4.40;4.00;;;;;;;;;;6097931;23;20010;-80
2023/06/28 18:27:52;;;;;;;4.55;4.15;;;;;;;;;;6097783;23;20013;-80
2023/06/28 18:30:18;;;;;;;4.72;4.10;;;;;;;;;;6097880;23;20106;-78
2023/06/28 18:32:44;;;;;;;5.63;4.28;;;;;;;;;;6097986;23;20545;-80
2023/06/28 18:35:09;;;;;;;5.00;4.50;;;;;;;;;;6072333;23;20042;-79
2023/06/28 18:37:35;;;;;;;7.47;4.90;;;;;;;;;;6097739;23;20002;-79
2023/06/28 18:40:00;;;;;;;5.68;5.18;;;;;;;;;;6097907;23;19998;-78
2023/06/28 18:42:25;;;;;;;7.22;6.53;;;;;;;;;;6097704;23;20006;-79
2023/06/28 18:44:51;;;;;;;5.00;4.43;;;;;;;;;;6098306;23;19999;-79
2023/06/28 18:47:16;;;;;;;6.68;5.90;;;;;;;;;;6098381;23;20041;-78
2023/06/28 18:49:42;;;;;;;11.32;6.80;;;;;;;;;;6097942;23;20010;-80
2023/06/28 18:52:07;;;;;;;7.45;5.63;;;;;;;;;;6098816;23;20070;-79
2023/06/28 18:54:33;;;;;;;6.47;4.50;;;;;;;;;;6099455;23;20034;-81
2023/06/28 18:56:58;;;;;;;6.05;5.45;;;;;;;;;;6097534;23;20371;-81
2023/06/28 18:59:24;;;;;;;5.22;4.72;;;;;;;;;;6097942;23;20370;-80
2023/06/28 19:01:49;;;;;;;6.10;5.40;;;;;;;;;;6097615;23;20014;-79
2023/06/28 19:04:15;;;;;;;5.10;4.65;;;;;;;;;;6098116;23;20002;-88
2023/06/28 19:06:40;;;;;;;6.95;4.35;;;;;;;;;;6097431;23;20287;-81
2023/06/28 19:09:06;;;;;;;5.28;4.78;;;;;;;;;;6097891;23;20010;-82
2023/06/28 19:11:31;;;;;;;4.88;4.40;;;;;;;;;;6097867;23;20002;-82
2023/06/28 19:13:56;;;;;;;5.55;4.53;;;;;;;;;;6097831;23;20006;-84
2023/06/28 19:16:22;;;;;;;5.90;5.05;;;;;;;;;;6097873;23;20033;-82
2023/06/28 19:18:47;;;;;;;5.13;4.63;;;;;;;;;;6097908;23;20426;-84
2023/06/28 19:21:13;;;;;;;6.50;5.90;;;;;;;;;;6097970;23;20073;-82
2023/06/28 19:23:39;;;;;;;6.50;5.10;;;;;;;;;;6097748;23;20550;-81
2023/06/28 19:26:06;;;;;;;6.15;5.05;;;;;;;;;;6097870;23;20082;-82
2023/06/28 19:28:32;;;;;;;4.97;4.57;;;;;;;;;;6098213;23;20450;-83
2023/06/28 19:30:57;;;;;;;5.80;5.28;;;;;;;;;;6097936;23;20073;-86
2023/06/28 19:33:23;;;;;;;5.72;4.63;;;;;;;;;;6097619;23;20014;-88
2023/06/28 19:35:50;;;;;;;6.57;5.20;;;;;;;;;;6097643;23;20473;-88
2023/06/28 19:38:16;;;;;;;5.80;4.90;;;;;;;;;;6072958;23;20042;-85
2023/06/28 19:40:41;;;;;;;5.38;4.70;;;;;;;;;;6097581;23;19998;-92
2023/06/28 19:43:07;;;;;;;5.20;4.60;;;;;;;;;;6097935;23;20002;-91
2023/06/28 19:45:32;;;;;;;6.72;4.97;;;;;;;;;;6098629;23;20379;-91
2023/06/28 19:47:58;;;;;;;6.85;5.38;;;;;;;;;;6097998;23;20037;-89
2023/06/28 19:50:24;;;;;;;7.28;5.93;;;;;;;;;;6097760;23;20002;-88
2023/06/28 19:52:50;;;;;;;6.13;5.53;;;;;;;;;;6097681;23;20050;-90
2023/06/28 19:55:16;;;;;;;5.82;4.78;;;;;;;;;;6072644;23;20007;-89
2023/06/28 19:57:41;;;;;;;5.75;4.70;;;;;;;;;;6098127;23;20446;-92
2023/06/28 20:00:08;;;;;;;6.43;4.80;;;;;;;;;;6096577;23;20003;-92
2023/06/28 20:02:34;;;;;;;6.13;5.00;;;;;;;;;;6095356;23;20015;-88
2023/06/28 20:05:01;;;;;;;7.35;5.45;;;;;;;;;;6098339;23;20057;-91
2023/06/28 20:07:28;;;;;;;6.50;5.20;;;;;;;;;;6099563;23;20030;-90
2023/06/28 20:09:56;;;;;;;5.68;5.18;;;;;;;;;;6096793;23;20422;-88
2023/06/28 20:12:21;;;;;;;6.40;5.25;;;;;;;;;;6096696;23;20077;-90
2023/06/28 20:14:47;;;;;;;6.32;5.35;;;;;;;;;;6096861;23;20482;-90
2023/06/28 20:17:13;;;;;;;5.35;4.85;;;;;;;;;;6096331;23;20018;-86
2023/06/28 20:19:38;;;;;;;5.50;5.00;;;;;;;;;;6096292;23;20006;-89
2023/06/28 20:22:04;;;;;;;6.05;5.45;;;;;;;;;;6096438;23;20006;-88
2023/06/28 20:24:31;;;;;;;6.63;5.57;;;;;;;;;;6121119;23;20037;-89
2023/06/28 20:26:56;;;;;;;5.10;4.60;;;;;;;;;;6097882;23;20007;-89
2023/06/28 20:29:22;;;;;;;7.10;5.28;;;;;;;;;;6099844;23;20007;-89
2023/06/28 20:31:47;;;;;;;6.55;5.35;;;;;;;;;;6098566;23;20014;-89
2023/06/28 20:34:14;;;;;;;5.60;4.90;;;;;;;;;;6099934;23;20002;-92
2023/06/28 20:36:40;;;;;;;5.38;4.88;;;;;;;;;;6099554;23;20077;-89
2023/06/28 20:39:05;;;;;;;7.78;5.60;;;;;;;;;;6097850;23;20050;-88
2023/06/28 20:41:31;;;;;;;5.35;4.38;;;;;;;;;;6098313;23;20097;-88
2023/06/28 20:43:56;;;;;;;6.15;5.15;;;;;;;;;;6098057;23;20438;-88
2023/06/28 20:46:22;;;;;;;6.63;4.80;;;;;;;;;;6098078;23;20010;-88
2023/06/28 20:48:48;;;;;;;6.30;5.15;;;;;;;;;;6099283;23;20034;-88
2023/06/28 20:51:14;;;;;;;5.57;5.07;;;;;;;;;;6098141;23;20003;-88
2023/06/28 20:53:45;;;;;;;4.95;4.45;;;;;;;;;;6099376;23;20006;-92
2023/06/28 20:56:11;;;;;;;7.82;5.63;;;;;;;;;;6098388;23;20006;-91
2023/06/28 20:58:36;;;;;;;5.80;4.35;;;;;;;;;;6097958;23;20034;-91
2023/06/28 21:01:04;;;;;;;5.07;4.57;;;;;;;;;;6097762;23;20450;-91
2023/06/28 21:03:30;;;;;;;5.20;4.70;;;;;;;;;;6099349;23;20014;-91
2023/06/28 21:05:55;;;;;;;7.68;4.82;;;;;;;;;;6099540;23;20003;-90
2023/06/28 21:08:21;;;;;;;6.03;4.95;;;;;;;;;;6099084;23;20009;-90
2023/06/28 21:10:46;;;;;;;5.05;4.55;;;;;;;;;;6097368;23;20066;-90
2023/06/28 21:13:11;;;;;;;5.93;5.13;;;;;;;;;;6098025;23;20013;-91
2023/06/28 21:15:37;;;;;;;5.85;4.78;;;;;;;;;;6098087;23;20010;-92
2023/06/28 21:18:05;;;;;;;6.05;4.80;;;;;;;;;;6098038;23;20018;-92
